createdAt,value
2022-11-24T00:01:16.441Z,7.92
2022-11-24T00:02:49.837Z,7.81
2022-11-24T00:04:23.246Z,7.88
2022-11-24T00:05:56.567Z,7.90
2022-11-24T00:07:29.872Z,7.87
2022-11-24T00:09:04.339Z,7.88
2022-11-24T00:10:38.060Z,7.86
2022-11-24T00:12:11.398Z,7.86
2022-11-24T00:13:45.265Z,7.86
2022-11-24T00:15:17.581Z,7.83
2022-11-24T00:16:50.954Z,7.76
2022-11-24T00:18:23.288Z,7.73
2022-11-24T00:19:56.637Z,7.72
2022-11-24T00:21:31.154Z,7.69
2022-11-24T00:23:04.585Z,7.64
2022-11-24T00:24:38.235Z,7.64
2022-11-24T00:26:14.380Z,7.69
2022-11-24T00:27:47.856Z,7.61
2022-11-24T00:29:21.175Z,7.62
2022-11-24T00:30:53.587Z,7.65
2022-11-24T00:32:29.237Z,7.67
2022-11-24T00:34:04.375Z,7.68
2022-11-24T00:35:36.647Z,7.66
2022-11-24T00:37:09.985Z,7.64
2022-11-24T00:38:42.642Z,7.60
2022-11-24T00:40:16.058Z,7.60
2022-11-24T00:41:50.789Z,7.59
2022-11-24T00:43:24.238Z,7.58
2022-11-24T00:44:57.490Z,7.55
2022-11-24T00:46:31.363Z,7.52
2022-11-24T00:48:03.822Z,7.48
2022-11-24T00:49:37.797Z,7.50
2022-11-24T00:51:13.304Z,7.47
2022-11-24T00:52:46.645Z,7.37
2022-11-24T00:54:19.989Z,7.50
2022-11-24T00:55:52.696Z,7.51
2022-11-24T00:57:27.394Z,7.55
2022-11-24T00:59:00.764Z,7.59
2022-11-24T01:00:34.127Z,7.64
2022-11-24T01:02:07.598Z,7.64
2022-11-24T01:03:42.224Z,7.65
2022-11-24T01:05:15.567Z,7.60
2022-11-24T01:06:48.938Z,7.52
2022-11-24T01:08:21.288Z,7.58
2022-11-24T01:09:54.586Z,7.61
2022-11-24T01:11:28.635Z,7.62
2022-11-24T01:13:03.861Z,7.63
2022-11-24T01:14:37.477Z,7.60
2022-11-24T01:16:14.980Z,7.62
2022-11-24T01:17:48.544Z,7.60
2022-11-24T01:19:22.316Z,7.63
2022-11-24T01:20:55.773Z,7.63
2022-11-24T01:22:29.015Z,7.65
2022-11-24T01:24:01.331Z,7.58
2022-11-24T01:25:34.707Z,7.62
2022-11-24T01:27:07.226Z,7.64
2022-11-24T01:28:46.590Z,7.62
2022-11-24T01:30:22.152Z,7.59
2022-11-24T01:31:55.483Z,7.61
2022-11-24T01:33:29.435Z,7.59
2022-11-24T01:35:02.707Z,7.60
2022-11-24T01:36:36.204Z,7.60
2022-11-24T01:38:08.479Z,7.61
2022-11-24T01:39:41.936Z,7.61
2022-11-24T01:41:18.695Z,7.47
2022-11-24T01:42:54.084Z,7.35
2022-11-24T01:44:30.535Z,7.28
2022-11-24T01:46:12.988Z,7.22
2022-11-24T01:47:46.333Z,7.18
2022-11-24T01:49:24.338Z,7.16
2022-11-24T01:51:05.248Z,7.07
2022-11-24T01:52:42.439Z,7.08
2022-11-24T01:54:19.779Z,7.07
2022-11-24T01:55:53.605Z,6.91
2022-11-24T01:57:31.442Z,6.91
2022-11-24T01:59:08.696Z,6.95
2022-11-24T02:00:46.464Z,7.03
2022-11-24T02:02:19.821Z,7.04
2022-11-24T02:03:54.028Z,7.07
2022-11-24T02:05:32.036Z,7.12
2022-11-24T02:07:08.473Z,7.17
2022-11-24T02:08:46.488Z,7.24
2022-11-24T02:10:20.039Z,7.27
2022-11-24T02:11:55.993Z,7.23
2022-11-24T02:13:29.415Z,7.25
2022-11-24T02:15:03.370Z,7.26
2022-11-24T02:16:38.710Z,7.18
2022-11-24T02:18:12.262Z,7.16
2022-11-24T02:19:56.015Z,7.18
2022-11-24T02:21:29.780Z,7.18
2022-11-24T02:23:11.343Z,7.11
2022-11-24T02:24:51.799Z,7.15
2022-11-24T02:26:37.945Z,7.22
2022-11-24T02:28:15.410Z,7.25
2022-11-24T02:29:50.160Z,7.20
2022-11-24T02:31:22.897Z,7.12
2022-11-24T02:32:56.349Z,7.07
2022-11-24T02:34:29.791Z,6.98
2022-11-24T02:36:03.059Z,6.87
2022-11-24T02:37:36.537Z,6.79
2022-11-24T02:39:12.477Z,6.77
2022-11-24T02:40:48.324Z,6.77
2022-11-24T02:42:23.764Z,6.66
2022-11-24T02:44:00.385Z,6.72
2022-11-24T02:45:33.734Z,6.56
2022-11-24T02:47:09.588Z,6.57
2022-11-24T02:48:42.988Z,6.66
2022-11-24T02:50:15.881Z,6.72
2022-11-24T02:51:49.190Z,6.72
2022-11-24T02:53:22.578Z,6.73
2022-11-24T02:54:55.858Z,6.75
2022-11-24T02:56:29.191Z,6.72
2022-11-24T02:58:03.909Z,6.67
2022-11-24T02:59:37.288Z,6.67
2022-11-24T03:01:10.620Z,6.66
2022-11-24T03:02:43.128Z,6.62
2022-11-24T03:04:16.558Z,6.53
2022-11-24T03:05:50.042Z,6.60
2022-11-24T03:07:24.183Z,6.64
2022-11-24T03:08:57.725Z,6.55
2022-11-24T03:10:29.970Z,6.49
2022-11-24T03:12:03.332Z,6.52
2022-11-24T03:13:38.460Z,6.51
2022-11-24T03:15:11.633Z,6.48
2022-11-24T03:16:45.224Z,6.45
2022-11-24T03:18:18.659Z,6.45
2022-11-24T03:19:51.922Z,6.45
2022-11-24T03:21:25.427Z,6.44
2022-11-24T03:22:58.735Z,6.48
2022-11-24T03:24:32.462Z,6.48
2022-11-24T03:26:10.358Z,6.55
2022-11-24T03:27:43.873Z,6.62
2022-11-24T03:29:18.724Z,6.68
2022-11-24T03:30:52.185Z,6.73
2022-11-24T03:32:25.556Z,6.76
2022-11-24T03:33:58.964Z,6.74
2022-11-24T03:35:32.247Z,6.80
2022-11-24T03:37:05.629Z,6.84
2022-11-24T03:38:39.087Z,6.89
2022-11-24T03:40:13.098Z,6.95
2022-11-24T03:41:46.377Z,7.00
2022-11-24T03:43:21.168Z,6.99
2022-11-24T03:44:55.823Z,7.01
2022-11-24T03:46:29.299Z,7.01
2022-11-24T03:48:03.236Z,6.95
2022-11-24T03:49:36.662Z,6.90
2022-11-24T03:51:11.177Z,6.92
2022-11-24T03:52:44.544Z,6.97
2022-11-24T03:54:16.809Z,6.98
2022-11-24T03:55:50.242Z,7.03
2022-11-24T03:57:23.580Z,7.07
2022-11-24T03:58:57.107Z,7.08
2022-11-24T04:00:31.762Z,7.08
2022-11-24T04:02:04.144Z,7.03
2022-11-24T04:03:37.461Z,7.04
2022-11-24T04:05:11.314Z,6.96
2022-11-24T04:06:44.662Z,6.97
2022-11-24T04:08:17.428Z,6.83
2022-11-24T04:09:50.745Z,6.92
2022-11-24T04:11:41.574Z,6.86
2022-11-24T04:13:16.691Z,6.67
2022-11-24T04:14:48.945Z,6.51
2022-11-24T04:16:23.504Z,6.49
2022-11-24T04:17:57.339Z,6.52
2022-11-24T04:19:30.786Z,6.46
2022-11-24T04:21:04.071Z,6.44
2022-11-24T04:22:36.292Z,6.42
2022-11-24T04:24:09.586Z,6.34
2022-11-24T04:25:43.746Z,6.35
2022-11-24T04:27:17.262Z,6.35
2022-11-24T04:28:50.414Z,6.34
2022-11-24T04:30:25.030Z,6.34
2022-11-24T04:31:59.560Z,6.26
2022-11-24T04:33:32.931Z,6.28
2022-11-24T04:35:06.633Z,6.30
2022-11-24T04:36:41.044Z,6.32
2022-11-24T04:38:14.163Z,6.34
2022-11-24T04:40:08.135Z,6.45
2022-11-24T04:41:41.300Z,6.44
2022-11-24T04:43:14.571Z,6.35
2022-11-24T04:44:47.031Z,6.28
2022-11-24T04:46:20.396Z,6.20
2022-11-24T04:47:53.904Z,6.15
2022-11-24T04:49:27.133Z,6.04
2022-11-24T04:51:00.264Z,5.94
2022-11-24T04:52:33.579Z,6.03
2022-11-24T04:54:07.534Z,5.92
2022-11-24T04:55:41.095Z,5.97
2022-11-24T04:57:16.888Z,6.04
2022-11-24T04:58:50.740Z,6.08
2022-11-24T05:00:23.931Z,6.05
2022-11-24T05:01:57.314Z,5.96
2022-11-24T05:03:31.837Z,5.90
2022-11-24T05:05:05.306Z,5.89
2022-11-24T05:06:38.437Z,5.86
2022-11-24T05:08:11.653Z,5.83
2022-11-24T05:09:59.758Z,5.83
2022-11-24T05:11:33.546Z,5.64
2022-11-24T05:13:07.708Z,5.75
2022-11-24T05:14:40.972Z,5.76
2022-11-24T05:16:14.188Z,5.83
2022-11-24T05:17:47.436Z,5.89
2022-11-24T05:19:21.924Z,5.90
2022-11-24T05:20:55.165Z,5.97
2022-11-24T05:22:29.065Z,6.05
2022-11-24T05:24:02.293Z,6.06
2022-11-24T05:25:36.146Z,6.10
2022-11-24T05:27:08.318Z,6.12
2022-11-24T05:28:41.512Z,6.14
2022-11-24T05:30:15.355Z,6.18
2022-11-24T05:31:48.528Z,6.23
2022-11-24T05:33:23.134Z,6.27
2022-11-24T05:34:58.322Z,6.14
2022-11-24T05:36:49.184Z,6.21
2022-11-24T05:38:23.790Z,6.25
2022-11-24T05:39:57.050Z,6.33
2022-11-24T05:41:30.207Z,6.35
2022-11-24T05:43:02.592Z,6.38
2022-11-24T05:44:35.978Z,6.42
2022-11-24T05:46:09.392Z,6.42
2022-11-24T05:47:43.609Z,6.44
2022-11-24T05:49:16.841Z,6.52
2022-11-24T05:50:56.534Z,6.54
2022-11-24T05:52:29.835Z,6.56
2022-11-24T05:54:03.027Z,6.61
2022-11-24T05:55:36.741Z,6.64
2022-11-24T05:57:09.909Z,6.64
2022-11-24T05:58:44.150Z,6.70
2022-11-24T06:00:20.271Z,6.70
2022-11-24T06:01:53.925Z,6.73
2022-11-24T06:03:27.134Z,6.76
2022-11-24T06:05:00.445Z,6.78
2022-11-24T06:06:35.178Z,6.83
2022-11-24T06:08:08.403Z,6.80
2022-11-24T06:09:43.168Z,6.79
2022-11-24T06:11:18.113Z,6.75
2022-11-24T06:12:51.732Z,6.56
2022-11-24T06:14:24.936Z,6.68
2022-11-24T06:16:00.435Z,6.74
2022-11-24T06:17:33.817Z,6.66
2022-11-24T06:19:07.474Z,6.59
2022-11-24T06:20:42.129Z,6.62
2022-11-24T06:22:15.880Z,6.68
2022-11-24T06:23:49.657Z,6.69
2022-11-24T06:25:22.816Z,6.74
2022-11-24T06:26:56.089Z,6.79
2022-11-24T06:28:30.002Z,6.80
2022-11-24T06:30:04.083Z,6.90
2022-11-24T06:31:37.335Z,6.97
2022-11-24T06:33:10.456Z,6.92
2022-11-24T06:34:44.117Z,6.80
2022-11-24T06:36:17.807Z,6.68
2022-11-24T06:37:52.368Z,6.66
2022-11-24T06:39:25.658Z,6.75
2022-11-24T06:41:02.635Z,6.81
2022-11-24T06:42:35.937Z,6.89
2022-11-24T06:44:09.137Z,6.92
2022-11-24T06:45:42.594Z,6.94
2022-11-24T06:47:16.035Z,6.96
2022-11-24T06:48:49.476Z,7.05
2022-11-24T06:50:22.637Z,7.07
2022-11-24T06:51:56.160Z,7.09
2022-11-24T06:53:33.105Z,7.13
2022-11-24T06:55:07.382Z,7.20
2022-11-24T06:56:40.917Z,7.28
2022-11-24T06:58:14.280Z,7.21
2022-11-24T06:59:47.587Z,7.24
2022-11-24T07:01:23.232Z,7.24
2022-11-24T07:02:56.501Z,7.23
2022-11-24T07:04:29.829Z,7.25
2022-11-24T07:06:03.023Z,7.31
2022-11-24T07:07:36.501Z,7.36
2022-11-24T07:09:11.880Z,7.41
2022-11-24T07:10:45.512Z,7.46
2022-11-24T07:12:18.659Z,7.52
2022-11-24T07:13:58.173Z,7.59
2022-11-24T07:15:32.965Z,7.58
2022-11-24T07:17:06.738Z,7.60
2022-11-24T07:18:40.008Z,7.63
2022-11-24T07:20:13.511Z,7.59
2022-11-24T07:21:47.181Z,7.65
2022-11-24T07:23:20.400Z,7.72
2022-11-24T07:24:54.968Z,7.70
2022-11-24T07:26:28.545Z,7.81
2022-11-24T07:28:02.324Z,7.86
2022-11-24T07:29:35.479Z,7.96
2022-11-24T07:31:09.673Z,7.95
2022-11-24T07:32:42.909Z,7.85
2022-11-24T07:34:16.135Z,7.87
2022-11-24T07:35:49.329Z,7.96
2022-11-24T07:37:25.580Z,7.89
2022-11-24T07:39:02.973Z,7.95
2022-11-24T07:40:37.581Z,8.06
2022-11-24T07:42:11.495Z,8.09
2022-11-24T07:43:44.620Z,8.01
2022-11-24T07:45:18.026Z,7.99
2022-11-24T07:46:51.427Z,8.04
2022-11-24T07:48:24.722Z,8.07
2022-11-24T07:49:58.021Z,8.06
2022-11-24T07:51:31.211Z,8.14
2022-11-24T07:53:05.223Z,8.18
2022-11-24T07:54:38.312Z,8.14
2022-11-24T07:56:13.341Z,8.18
2022-11-24T07:57:46.444Z,8.33
2022-11-24T07:59:19.720Z,8.25
2022-11-24T08:00:52.880Z,8.29
2022-11-24T08:02:26.318Z,8.26
2022-11-24T08:03:59.486Z,8.43
2022-11-24T08:05:32.710Z,8.55
2022-11-24T08:07:05.914Z,8.61
2022-11-24T08:08:39.102Z,8.58
2022-11-24T08:10:12.395Z,8.62
2022-11-24T08:11:47.005Z,8.70
2022-11-24T08:13:20.373Z,8.77
2022-11-24T08:14:53.545Z,8.86
2022-11-24T08:16:26.882Z,8.95
2022-11-24T08:18:02.667Z,9.00
2022-11-24T08:20:18.625Z,9.02
2022-11-24T08:21:51.994Z,9.06
2022-11-24T08:23:25.396Z,9.07
2022-11-24T08:24:58.732Z,9.05
2022-11-24T08:26:32.199Z,9.06
2022-11-24T08:28:06.944Z,9.04
2022-11-24T08:29:40.346Z,9.06
2022-11-24T08:31:15.548Z,9.15
2022-11-24T08:32:48.771Z,9.18
2022-11-24T08:34:21.934Z,9.17
2022-11-24T08:35:55.171Z,9.15
2022-11-24T08:37:29.450Z,9.03
2022-11-24T08:39:03.074Z,9.00
2022-11-24T08:40:36.274Z,8.98
2022-11-24T08:42:09.442Z,9.08
2022-11-24T08:43:44.504Z,9.11
2022-11-24T08:45:21.486Z,9.21
2022-11-24T08:46:56.048Z,9.21
2022-11-24T08:48:29.429Z,9.16
2022-11-24T08:50:02.748Z,9.20
2022-11-24T08:51:36.042Z,9.12
2022-11-24T08:53:09.224Z,9.07
2022-11-24T08:54:44.537Z,9.04
2022-11-24T08:56:17.832Z,8.91
2022-11-24T08:57:51.001Z,8.92
2022-11-24T08:59:25.583Z,8.95
2022-11-24T09:01:05.739Z,8.91
2022-11-24T09:02:39.010Z,8.80
2022-11-24T09:04:12.299Z,8.83
2022-11-24T09:05:53.154Z,8.78
2022-11-24T09:07:26.550Z,8.74
2022-11-24T09:09:00.953Z,8.75
2022-11-24T09:10:34.266Z,8.74
2022-11-24T09:12:14.260Z,8.74
2022-11-24T09:13:47.950Z,8.81
2022-11-24T09:15:22.989Z,8.78
2022-11-24T09:16:56.287Z,8.63
2022-11-24T09:18:30.506Z,8.61
2022-11-24T09:20:03.943Z,8.62
2022-11-24T09:21:39.134Z,8.66
2022-11-24T09:23:12.462Z,8.67
2022-11-24T09:24:45.618Z,8.73
2022-11-24T09:26:20.643Z,8.78
2022-11-24T09:27:54.627Z,8.83
2022-11-24T09:29:27.745Z,8.81
2022-11-24T09:31:06.670Z,8.85
2022-11-24T09:32:39.800Z,8.88
2022-11-24T09:34:15.588Z,8.93
2022-11-24T09:35:51.201Z,8.98
2022-11-24T09:37:28.153Z,8.88
2022-11-24T09:39:03.074Z,8.94
2022-11-24T09:40:36.394Z,8.96
2022-11-24T09:42:16.781Z,8.91
2022-11-24T09:43:58.032Z,9.00
2022-11-24T09:46:04.958Z,9.03
2022-11-24T09:47:50.746Z,9.09
2022-11-24T09:49:32.073Z,9.14
2022-11-24T09:51:07.041Z,9.18
2022-11-24T09:52:44.538Z,9.25
2022-11-24T09:54:21.862Z,9.31
2022-11-24T09:55:58.008Z,9.36
2022-11-24T09:57:37.649Z,9.38
2022-11-24T09:59:16.720Z,9.39
2022-11-24T10:00:53.961Z,9.43
2022-11-24T10:02:28.276Z,9.29
2022-11-24T10:04:06.223Z,9.29
2022-11-24T10:05:39.895Z,9.36
2022-11-24T10:07:24.221Z,9.42
2022-11-24T10:09:25.103Z,9.44
2022-11-24T10:11:00.709Z,9.48
2022-11-24T10:12:50.438Z,9.51
2022-11-24T10:15:11.338Z,9.46
2022-11-24T10:16:54.587Z,9.48
2022-11-24T10:18:43.252Z,9.51
2022-11-24T10:20:29.303Z,9.56
2022-11-24T10:22:29.236Z,9.55
2022-11-24T10:24:18.996Z,9.47
2022-11-24T10:25:57.974Z,9.44
2022-11-24T10:27:37.474Z,9.40
2022-11-24T10:29:21.302Z,9.42
2022-11-24T10:31:01.557Z,9.37
2022-11-24T10:32:39.020Z,9.32
2022-11-24T10:34:17.319Z,9.28
2022-11-24T10:35:57.067Z,9.32
2022-11-24T10:37:36.535Z,9.34
2022-11-24T10:39:20.737Z,9.39
2022-11-24T10:40:58.941Z,9.40
2022-11-24T10:42:33.795Z,9.36
2022-11-24T10:44:14.153Z,9.37
2022-11-24T10:45:48.174Z,9.42
2022-11-24T10:47:22.973Z,9.45
2022-11-24T10:48:59.984Z,9.42
2022-11-24T10:50:37.059Z,9.49
2022-11-24T10:52:15.185Z,9.53
2022-11-24T10:53:49.992Z,9.59
2022-11-24T10:55:23.570Z,9.59
2022-11-24T10:56:57.117Z,9.64
2022-11-24T10:58:37.377Z,9.64
2022-11-24T11:00:34.311Z,9.63
2022-11-24T11:02:34.220Z,9.70
2022-11-24T11:04:20.324Z,9.77
2022-11-24T11:05:55.248Z,9.85
2022-11-24T11:07:29.914Z,9.90
2022-11-24T11:09:20.272Z,9.94
2022-11-24T11:11:14.027Z,9.99
2022-11-24T11:12:47.331Z,9.94
2022-11-24T11:14:31.954Z,9.89
2022-11-24T11:16:23.790Z,9.87
2022-11-24T11:18:01.640Z,9.86
2022-11-24T11:20:00.251Z,9.85
2022-11-24T11:21:37.530Z,9.87
2022-11-24T11:23:21.651Z,9.77
2022-11-24T11:25:15.589Z,9.71
2022-11-24T11:26:48.920Z,9.72
2022-11-24T11:28:29.514Z,9.69
2022-11-24T11:34:26.699Z,9.85
2022-11-24T11:36:11.131Z,9.86
2022-11-24T11:37:46.384Z,9.84
2022-11-24T11:39:27.980Z,9.81
2022-11-24T11:41:04.430Z,9.78
2022-11-24T11:44:41.125Z,9.69
2022-11-24T11:46:17.023Z,9.67
2022-11-24T11:47:55.023Z,9.63
2022-11-24T11:49:28.343Z,9.67
2022-11-24T11:51:22.789Z,9.69
2022-11-24T11:53:07.473Z,9.65
2022-11-24T11:55:04.841Z,9.59
2022-11-24T11:56:44.463Z,9.61
2022-11-24T11:58:39.156Z,9.68
2022-11-24T12:00:16.709Z,9.77
2022-11-24T12:02:13.582Z,9.81
2022-11-24T12:03:57.507Z,9.82
2022-11-24T12:05:47.530Z,9.86
2022-11-24T12:07:45.558Z,9.81
2022-11-24T12:09:34.927Z,9.82
2022-11-24T12:11:16.101Z,9.88
2022-11-24T12:13:04.503Z,9.89
2022-11-24T12:14:45.933Z,9.88
2022-11-24T12:16:31.644Z,9.91
2022-11-24T12:18:55.003Z,9.89
2022-11-24T12:20:34.483Z,9.91
2022-11-24T12:22:14.978Z,9.99
2022-11-24T12:23:58.282Z,10.04
2022-11-24T12:25:36.125Z,10.07
2022-11-24T12:27:25.909Z,9.99
2022-11-24T12:29:27.157Z,9.98
2022-11-24T12:31:07.276Z,9.94
2022-11-24T12:33:10.709Z,9.84
2022-11-24T12:34:53.597Z,9.86
2022-11-24T12:36:39.828Z,9.78
2022-11-24T12:38:26.816Z,9.75
2022-11-24T12:40:06.082Z,9.77
2022-11-24T12:41:53.657Z,9.71
2022-11-24T12:43:34.680Z,9.67
2022-11-24T12:45:17.148Z,9.61
2022-11-24T12:46:56.501Z,9.71
2022-11-24T12:48:40.072Z,9.74
2022-11-24T12:50:20.018Z,9.81
2022-11-24T12:51:59.891Z,9.69
2022-11-24T12:53:35.689Z,9.75
2022-11-24T12:55:16.557Z,9.70
2022-11-24T12:56:58.532Z,9.66
2022-11-24T12:58:40.704Z,9.77
2022-11-24T13:00:21.867Z,9.80
2022-11-24T13:02:06.173Z,9.83
2022-11-24T13:03:57.915Z,9.86
2022-11-24T13:05:38.347Z,9.86
2022-11-24T13:07:15.060Z,9.83
2022-11-24T13:08:48.684Z,9.83
2022-11-24T13:10:54.315Z,9.80
2022-11-24T13:12:23.964Z,9.81
2022-11-24T13:14:01.275Z,9.77
2022-11-24T13:18:06.835Z,9.84
2022-11-24T13:19:41.877Z,9.84
2022-11-24T13:21:51.028Z,9.88
2022-11-24T13:23:27.968Z,9.91
2022-11-24T13:25:18.419Z,9.97
2022-11-24T13:26:53.977Z,9.94
2022-11-24T13:29:06.101Z,9.94
2022-11-24T13:31:11.392Z,9.76
2022-11-24T13:32:48.358Z,9.73
2022-11-24T13:34:55.864Z,9.74
2022-11-24T13:36:52.744Z,9.77
2022-11-24T13:38:41.837Z,9.84
2022-11-24T13:40:54.379Z,9.86
2022-11-24T13:43:14.742Z,9.85
2022-11-24T13:44:57.245Z,9.84
2022-11-24T13:47:04.739Z,9.86
2022-11-24T13:49:01.283Z,9.85
2022-11-24T13:51:15.615Z,9.81
2022-11-24T13:52:52.060Z,9.79
2022-11-24T13:54:28.635Z,9.72
2022-11-24T13:56:07.356Z,9.74
2022-11-24T13:57:41.890Z,9.76
2022-11-24T13:59:25.573Z,9.77
2022-11-24T14:01:13.333Z,9.76
2022-11-24T14:02:46.930Z,9.76
2022-11-24T14:04:31.549Z,9.78
2022-11-24T14:06:05.954Z,9.79
2022-11-24T14:07:42.200Z,9.80
2022-11-24T14:09:29.359Z,9.73
2022-11-24T14:11:04.055Z,9.65
2022-11-24T14:12:37.407Z,9.66
2022-11-24T14:14:17.531Z,9.67
2022-11-24T14:16:14.945Z,9.70
2022-11-24T14:17:48.237Z,9.75
2022-11-24T14:19:21.478Z,9.75
2022-11-24T14:20:54.701Z,9.76
2022-11-24T14:22:34.640Z,9.80
2022-11-24T14:24:13.484Z,9.78
2022-11-24T14:25:49.426Z,9.82
2022-11-24T14:27:28.762Z,9.84
2022-11-24T14:29:07.520Z,9.84
2022-11-24T14:30:40.891Z,9.83
2022-11-24T14:32:17.650Z,9.77
2022-11-24T14:33:51.518Z,9.74
2022-11-24T14:35:26.807Z,9.75
2022-11-24T14:37:02.495Z,9.77
2022-11-24T14:38:35.691Z,9.81
2022-11-24T14:40:39.526Z,9.83
2022-11-24T14:42:20.079Z,9.79
2022-11-24T14:44:13.625Z,9.79
2022-11-24T14:45:56.299Z,9.76
2022-11-24T14:47:36.206Z,9.80
2022-11-24T14:49:09.847Z,9.80
2022-11-24T14:50:43.704Z,9.84
2022-11-24T14:52:19.298Z,9.80
2022-11-24T14:53:54.819Z,9.82
2022-11-24T14:55:30.046Z,9.78
2022-11-24T14:57:05.375Z,9.77
2022-11-24T14:58:42.195Z,9.81
2022-11-24T15:00:19.513Z,9.77
2022-11-24T15:01:53.017Z,9.77
2022-11-24T15:03:27.853Z,9.79
2022-11-24T15:05:03.764Z,9.81
2022-11-24T15:06:37.674Z,9.81
2022-11-24T15:08:15.446Z,9.76
2022-11-24T15:09:54.120Z,9.74
2022-11-24T15:11:30.950Z,9.73
2022-11-24T15:13:08.497Z,9.70
2022-11-24T15:14:50.415Z,9.70
2022-11-24T15:16:27.167Z,9.71
2022-11-24T15:18:01.898Z,9.70
2022-11-24T15:19:37.351Z,9.67
2022-11-24T15:21:17.235Z,9.65
2022-11-24T15:22:52.931Z,9.64
2022-11-24T15:24:26.097Z,9.65
2022-11-24T15:26:19.644Z,9.69
2022-11-24T15:27:52.972Z,9.72
2022-11-24T15:29:26.183Z,9.72
2022-11-24T15:31:03.092Z,9.74
2022-11-24T15:32:36.816Z,9.75
2022-11-24T15:34:13.924Z,9.74
2022-11-24T15:35:49.351Z,9.74
2022-11-24T15:37:22.612Z,9.74
2022-11-24T15:38:55.740Z,9.76
2022-11-24T15:40:28.986Z,9.76
2022-11-24T15:42:02.459Z,9.83
2022-11-24T15:43:37.753Z,9.80
2022-11-24T15:45:12.178Z,9.79
2022-11-24T15:46:45.483Z,9.79
2022-11-24T15:48:18.755Z,9.79
2022-11-24T15:49:51.999Z,9.82
2022-11-24T15:51:27.946Z,9.81
2022-11-24T15:53:01.130Z,9.81
2022-11-24T15:54:35.094Z,9.82
2022-11-24T15:56:13.784Z,9.82
2022-11-24T15:57:47.503Z,9.79
2022-11-24T15:59:21.435Z,9.74
2022-11-24T16:00:54.957Z,9.80
2022-11-24T16:02:28.797Z,9.68
2022-11-24T16:04:02.387Z,9.80
2022-11-24T16:05:36.043Z,9.79
2022-11-24T16:07:13.218Z,9.76
2022-11-24T16:08:46.695Z,9.77
2022-11-24T16:10:25.959Z,9.77
2022-11-24T16:11:59.224Z,9.80
2022-11-24T16:13:32.540Z,9.80
2022-11-24T16:15:06.552Z,9.79
2022-11-24T16:16:40.850Z,9.74
2022-11-24T16:18:14.825Z,9.75
2022-11-24T16:19:50.573Z,9.75
2022-11-24T16:21:33.289Z,9.78
2022-11-24T16:23:07.929Z,9.76
2022-11-24T16:24:41.235Z,9.75
2022-11-24T16:26:14.473Z,9.71
2022-11-24T16:27:47.698Z,9.64
2022-11-24T16:29:23.717Z,9.71
2022-11-24T16:30:57.066Z,9.69
2022-11-24T16:32:30.381Z,9.64
2022-11-24T16:34:03.504Z,9.70
2022-11-24T16:35:37.255Z,9.67
2022-11-24T16:37:10.929Z,9.65
2022-11-24T16:38:45.570Z,9.67
2022-11-24T16:40:19.390Z,9.67
2022-11-24T16:41:52.612Z,9.66
2022-11-24T16:43:26.107Z,9.66
2022-11-24T16:44:59.243Z,9.65
2022-11-24T16:46:32.647Z,9.63
2022-11-24T16:48:06.455Z,9.61
2022-11-24T16:49:39.686Z,9.62
2022-11-24T16:51:13.924Z,9.59
2022-11-24T16:52:47.056Z,9.62
2022-11-24T16:54:21.736Z,9.65
2022-11-24T16:55:58.170Z,9.62
2022-11-24T16:57:31.260Z,9.65
2022-11-24T16:59:05.647Z,9.64
2022-11-24T17:00:38.813Z,9.65
2022-11-24T17:02:13.676Z,9.62
2022-11-24T17:03:47.090Z,9.65
2022-11-24T17:05:20.431Z,9.68
2022-11-24T17:06:53.695Z,9.67
2022-11-24T17:08:26.988Z,9.68
2022-11-24T17:10:01.634Z,9.69
2022-11-24T17:11:34.830Z,9.69
2022-11-24T17:13:08.560Z,9.68
2022-11-24T17:14:41.787Z,9.67
2022-11-24T17:16:16.749Z,9.69
2022-11-24T17:18:16.117Z,9.70
2022-11-24T17:19:43.977Z,9.70
2022-11-24T17:21:18.827Z,9.70
2022-11-24T17:22:52.015Z,9.69
2022-11-24T17:24:25.222Z,9.67
2022-11-24T17:26:05.486Z,9.65
2022-11-24T17:27:38.614Z,9.65
2022-11-24T17:29:12.038Z,9.62
2022-11-24T17:30:45.267Z,9.68
2022-11-24T17:32:18.577Z,9.67
2022-11-24T17:33:53.488Z,9.64
2022-11-24T17:35:26.663Z,9.68
2022-11-24T17:36:59.877Z,9.68
2022-11-24T17:38:33.391Z,9.67
2022-11-24T17:40:27.493Z,9.66
2022-11-24T17:42:02.461Z,9.64
2022-11-24T17:43:35.894Z,9.62
2022-11-24T17:45:09.683Z,9.58
2022-11-24T17:46:42.891Z,9.59
2022-11-24T17:48:16.160Z,9.57
2022-11-24T17:49:49.310Z,9.56
2022-11-24T17:51:24.346Z,9.59
2022-11-24T17:52:57.511Z,9.60
2022-11-24T17:54:45.948Z,9.59
2022-11-24T17:56:22.979Z,9.58
2022-11-24T17:57:58.505Z,9.59
2022-11-24T17:59:31.754Z,9.61
2022-11-24T18:01:05.474Z,9.56
2022-11-24T18:02:39.597Z,9.56
2022-11-24T18:04:13.013Z,9.55
2022-11-24T18:05:46.370Z,9.56
2022-11-24T18:07:19.614Z,9.57
2022-11-24T18:08:54.340Z,9.58
2022-11-24T18:10:27.600Z,9.57
2022-11-24T18:12:00.832Z,9.57
2022-11-24T18:13:55.810Z,9.55
2022-11-24T18:15:29.177Z,9.52
2022-11-24T18:17:02.502Z,9.48
2022-11-24T18:18:40.107Z,9.46
2022-11-24T18:20:14.011Z,9.42
2022-11-24T18:21:47.192Z,9.40
2022-11-24T18:23:20.458Z,9.33
2022-11-24T18:24:53.701Z,9.26
2022-11-24T18:26:26.931Z,9.14
2022-11-24T18:28:00.174Z,9.18
2022-11-24T18:29:34.722Z,9.18
2022-11-24T18:31:11.345Z,9.17
2022-11-24T18:32:44.620Z,9.19
2022-11-24T18:34:17.738Z,9.15
2022-11-24T18:35:57.218Z,9.09
2022-11-24T18:37:32.557Z,9.12
2022-11-24T18:39:08.069Z,9.12
2022-11-24T18:40:41.819Z,9.13
2022-11-24T18:42:14.973Z,9.14
2022-11-24T18:43:48.127Z,9.09
2022-11-24T18:45:22.748Z,9.16
2022-11-24T18:46:55.942Z,9.12
2022-11-24T18:48:29.150Z,9.19
2022-11-24T18:50:02.336Z,9.06
2022-11-24T18:51:35.848Z,9.15
2022-11-24T18:53:09.303Z,9.15
2022-11-24T18:54:42.567Z,9.14
2022-11-24T18:56:17.638Z,9.12
2022-11-24T18:57:50.758Z,9.11
2022-11-24T18:59:23.997Z,9.14
2022-11-24T19:01:07.905Z,9.12
2022-11-24T19:02:41.450Z,9.10
2022-11-24T19:04:15.371Z,9.10
2022-11-24T19:05:48.497Z,9.10
2022-11-24T19:07:22.077Z,9.08
2022-11-24T19:08:56.027Z,9.11
2022-11-24T19:10:29.216Z,9.11
2022-11-24T19:12:03.192Z,9.10
2022-11-24T19:13:37.501Z,9.07
2022-11-24T19:15:11.281Z,9.05
2022-11-24T19:16:47.768Z,9.06
2022-11-24T19:18:21.561Z,9.07
2022-11-24T19:19:54.689Z,9.03
2022-11-24T19:21:28.501Z,9.05
2022-11-24T19:23:01.667Z,9.02
2022-11-24T19:24:34.992Z,9.09
2022-11-24T19:26:09.462Z,9.01
2022-11-24T19:27:42.671Z,9.05
2022-11-24T19:29:15.895Z,9.04
2022-11-24T19:30:49.229Z,8.96
2022-11-24T19:32:23.802Z,9.05
2022-11-24T19:33:58.754Z,9.07
2022-11-24T19:35:31.942Z,9.08
2022-11-24T19:37:05.239Z,9.12
2022-11-24T19:38:39.046Z,9.07
2022-11-24T19:40:13.100Z,9.06
2022-11-24T19:41:46.716Z,9.03
2022-11-24T19:43:19.932Z,9.04
2022-11-24T19:44:56.682Z,9.03
2022-11-24T19:46:30.920Z,9.07
2022-11-24T19:48:05.741Z,9.07
2022-11-24T19:49:38.934Z,9.05
2022-11-24T19:51:14.985Z,9.02
2022-11-24T19:52:49.375Z,9.00
2022-11-24T19:54:22.637Z,9.00
2022-11-24T19:55:55.915Z,8.99
2022-11-24T19:57:29.175Z,9.01
2022-11-24T19:59:02.961Z,9.02
2022-11-24T20:00:36.145Z,9.00
2022-11-24T20:02:10.277Z,9.02
2022-11-24T20:03:46.531Z,9.04
2022-11-24T20:05:19.755Z,9.09
2022-11-24T20:06:52.950Z,9.14
2022-11-24T20:08:26.165Z,9.10
2022-11-24T20:10:04.401Z,9.07
2022-11-24T20:11:41.388Z,9.08
2022-11-24T20:13:14.530Z,9.10
2022-11-24T20:14:47.713Z,9.12
2022-11-24T20:16:26.420Z,9.14
2022-11-24T20:18:00.332Z,9.15
2022-11-24T20:19:34.827Z,9.13
2022-11-24T20:21:09.474Z,9.16
2022-11-24T20:22:42.673Z,9.16
2022-11-24T20:24:18.986Z,9.13
2022-11-24T20:25:52.144Z,9.17
2022-11-24T20:27:25.346Z,9.19
2022-11-24T20:28:59.876Z,9.13
2022-11-24T20:30:34.131Z,9.09
2022-11-24T20:32:07.529Z,9.10
2022-11-24T20:33:40.983Z,9.11
2022-11-24T20:35:18.338Z,9.16
2022-11-24T20:36:52.971Z,9.19
2022-11-24T20:38:26.236Z,9.23
2022-11-24T20:40:02.225Z,9.21
2022-11-24T20:41:37.771Z,9.17
2022-11-24T20:43:11.017Z,9.18
2022-11-24T20:44:44.190Z,9.17
2022-11-24T20:46:19.745Z,9.18
2022-11-24T20:47:53.002Z,9.20
2022-11-24T20:49:26.997Z,9.22
2022-11-24T20:51:06.650Z,9.21
2022-11-24T20:52:39.807Z,9.27
2022-11-24T20:54:14.110Z,9.27
2022-11-24T20:55:47.215Z,9.27
2022-11-24T20:57:20.457Z,9.27
2022-11-24T20:58:54.404Z,9.26
2022-11-24T21:00:27.582Z,9.24
2022-11-24T21:02:00.816Z,9.26
2022-11-24T21:03:37.165Z,9.24
2022-11-24T21:05:12.932Z,9.20
2022-11-24T21:06:47.767Z,9.20
2022-11-24T21:08:20.996Z,9.22
2022-11-24T21:09:54.255Z,9.22
2022-11-24T21:11:27.563Z,9.23
2022-11-24T21:13:00.726Z,9.27
2022-11-24T21:14:35.368Z,9.27
2022-11-24T21:16:16.534Z,9.31
2022-11-24T21:17:49.768Z,9.34
2022-11-24T21:19:23.082Z,9.40
2022-11-24T21:20:56.337Z,9.38
2022-11-24T21:22:30.923Z,9.40
2022-11-24T21:24:06.091Z,9.39
2022-11-24T21:25:39.476Z,9.43
2022-11-24T21:27:12.716Z,9.45
2022-11-24T21:28:47.676Z,9.43
2022-11-24T21:30:20.941Z,9.39
2022-11-24T21:31:54.149Z,9.43
2022-11-24T21:33:27.524Z,9.42
2022-11-24T21:35:00.666Z,9.45